Time;durP1;ratioP1;P1;durP2;ratioP2;P2;SDS_P1;SDS_P2;PMS_P1;PMS_P2;Temp;Humidity;BMP_temperature;BMP_pressure;BME280_temperature;BME280_humidity;BME280_pressure;Samples;Min_cycle;Max_cycle;Signal;HPM_P1;HPM_P2
2022/07/26 00:00:07;;;;;;;3.20;1.83;;;;;;;;;;4899483;29;20439;-69
2022/07/26 00:02:34;;;;;;;4.93;2.38;;;;;;;;;;4915947;29;20055;-69
2022/07/26 00:05:01;;;;;;;3.15;1.95;;;;;;;;;;4915969;29;20123;-69
2022/07/26 00:07:27;;;;;;;3.65;2.00;;;;;;;;;;4914876;29;20052;-69
2022/07/26 00:10:03;;;;;;;3.97;1.58;;;;;;;;;;4915840;29;20466;-69
2022/07/26 00:12:30;;;;;;;3.13;1.50;;;;;;;;;;4898933;29;20052;-69
2022/07/26 00:14:57;;;;;;;3.90;1.50;;;;;;;;;;4899237;29;20048;-69
2022/07/26 00:17:24;;;;;;;3.03;1.40;;;;;;;;;;4915837;29;20427;-69
2022/07/26 00:19:50;;;;;;;3.08;2.03;;;;;;;;;;4914586;29;20062;-68
2022/07/26 00:22:38;;;;;;;3.75;1.42;;;;;;;;;;4915865;29;20052;-69
2022/07/26 00:25:06;;;;;;;2.60;1.70;;;;;;;;;;4915893;29;20079;-69
2022/07/26 00:27:35;;;;;;;3.78;1.55;;;;;;;;;;4915801;29;20336;-69
2022/07/26 00:30:07;;;;;;;4.70;1.88;;;;;;;;;;4914473;29;20052;-69
2022/07/26 00:32:34;;;;;;;3.45;1.83;;;;;;;;;;4914346;29;20426;-68
2022/07/26 00:35:01;;;;;;;4.80;2.08;;;;;;;;;;4899100;29;20054;-68
2022/07/26 00:37:28;;;;;;;5.15;1.92;;;;;;;;;;4914233;29;20074;-68
2022/07/26 00:39:54;;;;;;;10.50;3.15;;;;;;;;;;4914419;29;20464;-69
2022/07/26 00:42:21;;;;;;;5.18;1.88;;;;;;;;;;4915529;29;20055;-69
2022/07/26 00:44:48;;;;;;;1.98;1.33;;;;;;;;;;4913880;29;20466;-69
2022/07/26 00:47:14;;;;;;;4.18;1.55;;;;;;;;;;4914109;29;20054;-69
2022/07/26 00:49:41;;;;;;;2.65;1.40;;;;;;;;;;4897921;29;20428;-69
2022/07/26 00:52:09;;;;;;;2.90;1.40;;;;;;;;;;4895647;29;20079;-69
2022/07/26 00:54:36;;;;;;;2.33;1.20;;;;;;;;;;4895283;29;20483;-69
2022/07/26 00:57:03;;;;;;;3.05;1.10;;;;;;;;;;4895425;29;20052;-69
2022/07/26 00:59:30;;;;;;;3.55;1.60;;;;;;;;;;4895122;29;20056;-69
2022/07/26 01:01:57;;;;;;;2.25;1.10;;;;;;;;;;4895543;29;20052;-69
2022/07/26 01:04:24;;;;;;;5.03;1.73;;;;;;;;;;4895328;29;20100;-69
2022/07/26 01:06:50;;;;;;;2.28;1.10;;;;;;;;;;4895451;29;20116;-68
2022/07/26 01:09:17;;;;;;;2.55;1.35;;;;;;;;;;4895295;29;20049;-69
2022/07/26 01:11:44;;;;;;;4.55;1.10;;;;;;;;;;4895197;29;20108;-69
2022/07/26 01:14:11;;;;;;;5.80;1.40;;;;;;;;;;4911525;29;20048;-68
2022/07/26 01:16:38;;;;;;;2.67;1.35;;;;;;;;;;4897257;29;20052;-68
2022/07/26 01:19:04;;;;;;;6.20;2.03;;;;;;;;;;4915191;29;20056;-69
2022/07/26 01:21:32;;;;;;;3.53;1.65;;;;;;;;;;4914176;29;20055;-69
2022/07/26 01:23:59;;;;;;;4.00;1.77;;;;;;;;;;4898596;29;20048;-70
2022/07/26 01:26:25;;;;;;;4.50;1.95;;;;;;;;;;4879820;29;20056;-70
2022/07/26 01:28:52;;;;;;;2.92;1.98;;;;;;;;;;4896089;29;20057;-69
2022/07/26 01:31:19;;;;;;;3.75;1.92;;;;;;;;;;4896532;29;20061;-69
2022/07/26 01:33:45;;;;;;;3.83;2.40;;;;;;;;;;4879654;29;20052;-69
2022/07/26 01:36:13;;;;;;;2.92;2.63;;;;;;;;;;4896224;29;20100;-69
2022/07/26 01:38:40;;;;;;;3.40;2.90;;;;;;;;;;4913584;29;20458;-69
2022/07/26 01:41:07;;;;;;;3.35;3.00;;;;;;;;;;4898397;29;20048;-69
2022/07/26 01:43:34;;;;;;;3.65;2.53;;;;;;;;;;4898333;29;20427;-69
2022/07/26 01:46:02;;;;;;;4.65;2.63;;;;;;;;;;4914038;29;20502;-69
2022/07/26 01:48:29;;;;;;;3.35;2.65;;;;;;;;;;4897205;29;20056;-69
2022/07/26 01:50:56;;;;;;;5.65;3.30;;;;;;;;;;4900262;29;20048;-69
2022/07/26 01:53:23;;;;;;;3.90;3.47;;;;;;;;;;4914850;29;20051;-69
2022/07/26 01:55:49;;;;;;;3.45;3.15;;;;;;;;;;4925608;23;20079;-72
2022/07/26 01:58:16;;;;;;;4.90;3.83;;;;;;;;;;4897946;29;20052;-72
2022/07/26 02:00:43;;;;;;;4.63;3.20;;;;;;;;;;4899555;29;20057;-72
2022/07/26 02:03:10;;;;;;;4.28;2.92;;;;;;;;;;4899700;29;20131;-72
2022/07/26 02:05:36;;;;;;;3.92;2.97;;;;;;;;;;4899384;29;20044;-72
2022/07/26 02:08:03;;;;;;;4.85;3.58;;;;;;;;;;4899387;29;20059;-72
2022/07/26 02:13:15;;;;;;;4.03;3.63;;;;;;;;;;4899349;29;20067;-72
2022/07/26 02:15:42;;;;;;;3.83;3.40;;;;;;;;;;4899399;29;20056;-72
2022/07/26 02:18:09;;;;;;;8.05;3.42;;;;;;;;;;4899322;29;20060;-72
2022/07/26 02:20:35;;;;;;;4.55;3.38;;;;;;;;;;4899130;29;20059;-72
2022/07/26 02:23:03;;;;;;;3.47;3.17;;;;;;;;;;4899157;29;20060;-72
2022/07/26 02:25:29;;;;;;;3.08;2.78;;;;;;;;;;4899168;29;20049;-72
2022/07/26 02:27:56;;;;;;;4.72;3.35;;;;;;;;;;4899251;29;20056;-72
2022/07/26 02:30:23;;;;;;;5.15;3.83;;;;;;;;;;4899122;29;20526;-72
2022/07/26 02:32:49;;;;;;;5.07;2.92;;;;;;;;;;4899010;29;20060;-70
2022/07/26 02:35:16;;;;;;;3.47;3.13;;;;;;;;;;4898946;29;20057;-70
2022/07/26 02:37:43;;;;;;;4.32;3.38;;;;;;;;;;4898785;29;20084;-70
2022/07/26 02:40:10;;;;;;;5.53;3.42;;;;;;;;;;4898733;29;20060;-70
2022/07/26 02:42:43;;;;;;;3.15;2.85;;;;;;;;;;4899034;29;20052;-70
2022/07/26 02:45:10;;;;;;;4.03;3.08;;;;;;;;;;4898713;29;20052;-70
2022/07/26 02:47:47;;;;;;;6.10;3.45;;;;;;;;;;4898800;29;20530;-70
2022/07/26 02:50:17;;;;;;;4.40;2.90;;;;;;;;;;4898829;29;20067;-70
2022/07/26 02:52:46;;;;;;;3.90;3.50;;;;;;;;;;4897728;29;20053;-70
2022/07/26 02:55:14;;;;;;;5.40;3.38;;;;;;;;;;4898566;29;20077;-71
2022/07/26 02:57:41;;;;;;;4.80;3.47;;;;;;;;;;4898756;29;20052;-71
2022/07/26 03:00:14;;;;;;;3.38;3.08;;;;;;;;;;4898327;29;20084;-71
2022/07/26 03:02:41;;;;;;;5.78;4.10;;;;;;;;;;4898349;29;20092;-71
2022/07/26 03:05:09;;;;;;;4.93;3.55;;;;;;;;;;4898417;29;20088;-71
2022/07/26 03:07:35;;;;;;;6.68;3.42;;;;;;;;;;4898533;29;20052;-71
2022/07/26 03:10:03;;;;;;;5.78;3.72;;;;;;;;;;4897971;29;20067;-71
2022/07/26 03:12:30;;;;;;;5.28;3.70;;;;;;;;;;4897161;29;20140;-71
2022/07/26 03:14:57;;;;;;;7.07;3.97;;;;;;;;;;4898097;29;20059;-71
2022/07/26 03:17:23;;;;;;;5.18;3.90;;;;;;;;;;4898404;29;20056;-71
2022/07/26 03:19:50;;;;;;;4.07;3.60;;;;;;;;;;4897917;29;20053;-71
2022/07/26 03:22:17;;;;;;;4.72;4.32;;;;;;;;;;4898049;29;20140;-71
2022/07/26 03:24:44;;;;;;;4.32;3.83;;;;;;;;;;4897966;29;20055;-71
2022/07/26 03:27:10;;;;;;;5.65;3.75;;;;;;;;;;4898057;29;20059;-72
2022/07/26 03:29:37;;;;;;;4.90;4.07;;;;;;;;;;4895670;29;20052;-72
2022/07/26 03:32:04;;;;;;;4.13;3.72;;;;;;;;;;4898076;29;20494;-71
2022/07/26 03:34:31;;;;;;;5.60;3.53;;;;;;;;;;4908000;29;20052;-72
2022/07/26 03:36:58;;;;;;;5.90;4.20;;;;;;;;;;4910495;29;20061;-72
2022/07/26 03:39:24;;;;;;;5.25;4.00;;;;;;;;;;4908296;29;20148;-71
2022/07/26 03:41:51;;;;;;;4.95;3.78;;;;;;;;;;4910011;29;20059;-72
2022/07/26 03:44:18;;;;;;;4.57;3.60;;;;;;;;;;4880217;29;20053;-71
2022/07/26 03:46:44;;;;;;;8.13;4.30;;;;;;;;;;4879921;29;20057;-71
2022/07/26 03:49:11;;;;;;;7.55;3.75;;;;;;;;;;4878735;29;20519;-71
2022/07/26 03:51:42;;;;;;;4.32;3.83;;;;;;;;;;4879378;29;20056;-72
2022/07/26 03:54:09;;;;;;;4.20;3.80;;;;;;;;;;4896048;29;20052;-72
2022/07/26 03:56:36;;;;;;;6.03;3.95;;;;;;;;;;4896674;29;20056;-73
2022/07/26 03:59:05;;;;;;;5.43;4.10;;;;;;;;;;4897320;29;20052;-73
2022/07/26 04:01:33;;;;;;;4.70;4.30;;;;;;;;;;4897632;29;20049;-72
2022/07/26 04:04:01;;;;;;;5.55;4.68;;;;;;;;;;4897384;29;20079;-73
2022/07/26 04:06:27;;;;;;;13.15;5.32;;;;;;;;;;4897270;29;20065;-73
2022/07/26 04:08:54;;;;;;;9.20;5.30;;;;;;;;;;4897008;29;20060;-73
2022/07/26 04:11:21;;;;;;;7.25;5.10;;;;;;;;;;4897273;29;20431;-73
2022/07/26 04:13:52;;;;;;;7.28;5.13;;;;;;;;;;4897515;29;20052;-73
2022/07/26 04:16:18;;;;;;;6.68;5.10;;;;;;;;;;4897186;29;20059;-73
2022/07/26 04:18:45;;;;;;;6.05;4.35;;;;;;;;;;4896937;29;20052;-72
2022/07/26 04:21:12;;;;;;;7.07;4.55;;;;;;;;;;4896622;29;20060;-72
2022/07/26 04:23:38;;;;;;;6.95;4.38;;;;;;;;;;4895631;29;20053;-72
2022/07/26 04:26:05;;;;;;;4.72;4.18;;;;;;;;;;4896948;29;20064;-73
2022/07/26 04:28:32;;;;;;;6.28;4.53;;;;;;;;;;4896973;29;20056;-73
2022/07/26 04:30:59;;;;;;;5.40;4.40;;;;;;;;;;4897049;29;20056;-73
2022/07/26 04:33:27;;;;;;;7.63;4.68;;;;;;;;;;4896422;29;20061;-73
2022/07/26 04:35:53;;;;;;;6.05;4.10;;;;;;;;;;4896972;29;20049;-73
2022/07/26 04:38:20;;;;;;;6.35;3.85;;;;;;;;;;4896658;29;20059;-73
2022/07/26 04:40:46;;;;;;;5.43;4.15;;;;;;;;;;4897009;29;20060;-72
2022/07/26 04:43:13;;;;;;;5.15;4.45;;;;;;;;;;4880056;29;20057;-73
2022/07/26 04:45:42;;;;;;;6.03;3.70;;;;;;;;;;4896768;29;20416;-72
2022/07/26 04:48:09;;;;;;;4.95;3.95;;;;;;;;;;4896600;29;20552;-73
2022/07/26 04:50:35;;;;;;;4.75;3.70;;;;;;;;;;4896809;29;20059;-73
2022/07/26 04:53:02;;;;;;;6.82;4.30;;;;;;;;;;4896562;29;20049;-72
2022/07/26 04:55:29;;;;;;;6.25;4.05;;;;;;;;;;4895531;29;20359;-72
2022/07/26 04:57:56;;;;;;;9.55;3.97;;;;;;;;;;4896812;29;20080;-73
2022/07/26 05:00:23;;;;;;;6.05;4.25;;;;;;;;;;4896622;29;20080;-73
2022/07/26 05:02:55;;;;;;;6.50;3.90;;;;;;;;;;4897077;29;20053;-72
2022/07/26 05:05:22;;;;;;;4.80;3.95;;;;;;;;;;4896309;29;20053;-72
2022/07/26 05:07:54;;;;;;;5.85;3.45;;;;;;;;;;4896854;29;20059;-72
2022/07/26 05:10:26;;;;;;;4.13;3.70;;;;;;;;;;4896853;29;20063;-72
2022/07/26 05:12:53;;;;;;;4.15;3.72;;;;;;;;;;4896704;29;20056;-72
2022/07/26 05:15:19;;;;;;;4.97;3.38;;;;;;;;;;4896557;29;20052;-72
2022/07/26 05:17:46;;;;;;;3.88;2.90;;;;;;;;;;4896658;29;20063;-72
2022/07/26 05:20:14;;;;;;;4.18;3.28;;;;;;;;;;4896519;29;20064;-72
2022/07/26 05:22:41;;;;;;;3.17;2.88;;;;;;;;;;4896832;29;20053;-72
2022/07/26 05:25:08;;;;;;;5.43;3.22;;;;;;;;;;4896548;29;20052;-72
2022/07/26 05:27:35;;;;;;;4.32;3.10;;;;;;;;;;4896708;29;20053;-71
2022/07/26 05:30:02;;;;;;;5.57;3.10;;;;;;;;;;4896576;29;20080;-71
2022/07/26 05:32:29;;;;;;;3.47;2.92;;;;;;;;;;4898963;29;20057;-72
2022/07/26 05:34:55;;;;;;;3.00;2.65;;;;;;;;;;4900198;29;20061;-72
2022/07/26 05:37:22;;;;;;;4.38;2.25;;;;;;;;;;4900494;29;20056;-71
2022/07/26 05:39:49;;;;;;;2.50;2.30;;;;;;;;;;4900062;29;20499;-71
2022/07/26 05:42:16;;;;;;;2.70;2.10;;;;;;;;;;4900234;29;20060;-72
2022/07/26 05:44:42;;;;;;;4.20;2.75;;;;;;;;;;4900295;29;20052;-71
2022/07/26 05:47:09;;;;;;;3.53;2.40;;;;;;;;;;4900113;29;20057;-72
2022/07/26 05:49:36;;;;;;;2.83;2.28;;;;;;;;;;4899936;29;20048;-71
2022/07/26 05:52:06;;;;;;;3.10;2.25;;;;;;;;;;4900086;29;20057;-71
2022/07/26 05:54:33;;;;;;;4.32;2.45;;;;;;;;;;4899869;29;20060;-71
2022/07/26 05:57:00;;;;;;;3.72;2.67;;;;;;;;;;4898979;29;20052;-71
2022/07/26 05:59:27;;;;;;;5.20;2.58;;;;;;;;;;4897318;29;20057;-70
2022/07/26 06:01:55;;;;;;;4.78;2.47;;;;;;;;;;4897681;29;20052;-71
2022/07/26 06:04:25;;;;;;;2.55;2.20;;;;;;;;;;4897567;29;20065;-71
2022/07/26 06:06:53;;;;;;;3.88;2.60;;;;;;;;;;4897752;29;20052;-70
2022/07/26 06:09:23;;;;;;;3.63;2.45;;;;;;;;;;4897420;29;20052;-70
2022/07/26 06:11:49;;;;;;;3.65;2.78;;;;;;;;;;4897171;29;20158;-71
2022/07/26 06:14:17;;;;;;;5.13;2.40;;;;;;;;;;4897398;29;20064;-70
2022/07/26 06:16:45;;;;;;;3.70;2.50;;;;;;;;;;4897248;29;20055;-70
2022/07/26 06:19:11;;;;;;;2.25;2.03;;;;;;;;;;4878965;29;20053;-70
2022/07/26 06:21:38;;;;;;;4.28;2.60;;;;;;;;;;4878786;29;20057;-70
2022/07/26 06:24:05;;;;;;;2.47;2.28;;;;;;;;;;4878583;29;20071;-70
2022/07/26 06:26:32;;;;;;;4.20;2.50;;;;;;;;;;4878530;29;20140;-70
2022/07/26 06:28:59;;;;;;;5.20;2.20;;;;;;;;;;4878865;29;20519;-70
2022/07/26 06:31:25;;;;;;;2.60;1.77;;;;;;;;;;4897734;29;20049;-70
2022/07/26 06:33:52;;;;;;;2.58;1.90;;;;;;;;;;4897313;29;20515;-72
2022/07/26 06:36:19;;;;;;;5.50;2.10;;;;;;;;;;4897047;29;20060;-70
2022/07/26 06:38:45;;;;;;;3.03;1.90;;;;;;;;;;4897081;29;20060;-71
2022/07/26 06:41:14;;;;;;;2.33;1.83;;;;;;;;;;4896853;29;20496;-71
2022/07/26 06:43:41;;;;;;;4.97;1.63;;;;;;;;;;4896440;29;20059;-73
2022/07/26 06:46:07;;;;;;;4.97;1.70;;;;;;;;;;4896992;29;20500;-73
2022/07/26 06:48:34;;;;;;;3.67;1.73;;;;;;;;;;4897127;29;20056;-73
2022/07/26 06:51:02;;;;;;;4.72;2.15;;;;;;;;;;4898858;29;20076;-75
2022/07/26 06:53:28;;;;;;;2.97;1.95;;;;;;;;;;4900120;29;20048;-75
2022/07/26 06:55:55;;;;;;;2.90;1.80;;;;;;;;;;4908582;29;20064;-77
2022/07/26 06:58:22;;;;;;;6.50;1.80;;;;;;;;;;4900198;29;20049;-74
2022/07/26 07:00:48;;;;;;;7.03;1.83;;;;;;;;;;4897871;29;20060;-76
2022/07/26 07:03:15;;;;;;;3.45;1.40;;;;;;;;;;4897093;29;20064;-76
2022/07/26 07:05:42;;;;;;;5.75;1.42;;;;;;;;;;4897343;29;20405;-75
2022/07/26 07:08:15;;;;;;;;;;;;;;;;;;4897544;29;20216;-75
2022/07/26 07:10:41;;;;;;;4.68;1.10;;;;;;;;;;4896954;29;20355;-76
2022/07/26 07:13:08;;;;;;;1.20;0.90;;;;;;;;;;4911439;29;20567;-75
2022/07/26 07:15:35;;;;;;;2.28;1.25;;;;;;;;;;4896276;29;20059;-71
2022/07/26 07:18:01;;;;;;;2.88;1.17;;;;;;;;;;4897053;29;20064;-72
2022/07/26 07:20:28;;;;;;;2.38;1.00;;;;;;;;;;4896950;29;20055;-71
2022/07/26 07:22:55;;;;;;;3.97;1.88;;;;;;;;;;4896752;29;20086;-72
2022/07/26 07:25:22;;;;;;;1.50;1.00;;;;;;;;;;4896491;29;20041;-73
2022/07/26 07:27:56;;;;;;;3.10;1.00;;;;;;;;;;4896856;29;20079;-72
2022/07/26 07:30:23;;;;;;;2.75;1.38;;;;;;;;;;4895946;29;20102;-72
2022/07/26 07:32:54;;;;;;;3.55;1.40;;;;;;;;;;4897144;29;20083;-72
2022/07/26 07:35:22;;;;;;;1.67;1.20;;;;;;;;;;4896464;29;20523;-73
2022/07/26 07:37:48;;;;;;;2.08;1.08;;;;;;;;;;4896325;29;20504;-72
2022/07/26 07:40:20;;;;;;;1.67;0.88;;;;;;;;;;4896500;29;20500;-73
2022/07/26 07:42:48;;;;;;;2.05;0.90;;;;;;;;;;4879383;29;20108;-72
2022/07/26 07:45:14;;;;;;;6.68;1.92;;;;;;;;;;4896399;29;20057;-73
2022/07/26 07:47:41;;;;;;;3.15;0.90;;;;;;;;;;4896322;29;20063;-73
2022/07/26 07:50:08;;;;;;;3.00;0.80;;;;;;;;;;4886677;29;20054;-72
2022/07/26 07:52:34;;;;;;;1.63;0.77;;;;;;;;;;4895175;29;20052;-72
2022/07/26 07:55:09;;;;;;;2.25;1.10;;;;;;;;;;4898301;29;20048;-77
2022/07/26 07:58:00;;;;;;;2.58;0.90;;;;;;;;;;4895641;29;20060;-75
2022/07/26 08:00:26;;;;;;;3.42;1.20;;;;;;;;;;4895960;29;20056;-75
2022/07/26 08:02:53;;;;;;;2.67;0.85;;;;;;;;;;4896638;29;20259;-72
2022/07/26 08:05:20;;;;;;;4.05;1.00;;;;;;;;;;4886361;29;20064;-76
2022/07/26 08:07:48;;;;;;;2.58;0.90;;;;;;;;;;4908001;29;20104;-75
2022/07/26 08:10:18;;;;;;;1.10;0.70;;;;;;;;;;4892444;29;20065;-75
2022/07/26 08:12:45;;;;;;;1.10;0.60;;;;;;;;;;4908905;29;20088;-71
2022/07/26 08:15:16;;;;;;;3.25;1.15;;;;;;;;;;4893747;29;20112;-73
2022/07/26 08:17:44;;;;;;;3.10;0.73;;;;;;;;;;4906674;29;20052;-77
2022/07/26 08:20:20;;;;;;;3.30;1.00;;;;;;;;;;4893748;29;20091;-74
2022/07/26 08:22:51;;;;;;;2.03;0.60;;;;;;;;;;4892755;29;20059;-73
2022/07/26 08:25:18;;;;;;;1.52;0.77;;;;;;;;;;4899650;29;20431;-74
2022/07/26 08:27:45;;;;;;;2.10;0.93;;;;;;;;;;4896399;29;20080;-70
2022/07/26 08:30:29;;;;;;;0.93;0.70;;;;;;;;;;4890851;29;20144;-74
2022/07/26 08:32:56;;;;;;;2.80;1.10;;;;;;;;;;4896017;29;20059;-74
2022/07/26 08:35:22;;;;;;;2.45;0.65;;;;;;;;;;4895931;29;20068;-72
2022/07/26 08:37:49;;;;;;;3.47;0.80;;;;;;;;;;4895218;29;20067;-70
2022/07/26 08:40:16;;;;;;;2.28;0.70;;;;;;;;;;4892559;29;20056;-71
2022/07/26 08:42:52;;;;;;;1.63;0.77;;;;;;;;;;4895766;29;20097;-75
2022/07/26 08:45:27;;;;;;;0.85;0.80;;;;;;;;;;4895910;29;20060;-72
2022/07/26 08:47:54;;;;;;;1.38;0.75;;;;;;;;;;4896823;29;20049;-76
2022/07/26 08:50:41;;;;;;;2.67;1.02;;;;;;;;;;4875662;29;20064;-72
2022/07/26 08:53:08;;;;;;;1.38;0.60;;;;;;;;;;4890144;29;20083;-72
2022/07/26 08:55:35;;;;;;;3.35;1.10;;;;;;;;;;4885896;29;20057;-74
2022/07/26 08:58:21;;;;;;;2.15;0.75;;;;;;;;;;4905272;29;20103;-74
2022/07/26 09:01:02;;;;;;;1.55;0.60;;;;;;;;;;4895419;29;20518;-75
2022/07/26 09:03:30;;;;;;;2.40;0.75;;;;;;;;;;4907040;29;20064;-73
2022/07/26 09:06:10;;;;;;;2.25;0.98;;;;;;;;;;4910116;29;20136;-72
2022/07/26 09:08:37;;;;;;;1.08;0.60;;;;;;;;;;4914025;29;20062;-74
2022/07/26 09:11:23;;;;;;;2.30;0.70;;;;;;;;;;4900365;29;20139;-74
2022/07/26 09:13:55;;;;;;;2.15;0.70;;;;;;;;;;4902135;29;20104;-74
2022/07/26 09:16:21;;;;;;;1.83;0.68;;;;;;;;;;4890481;29;20519;-72
2022/07/26 09:18:48;;;;;;;1.48;0.88;;;;;;;;;;4899627;29;20056;-73
2022/07/26 09:21:27;;;;;;;4.05;0.80;;;;;;;;;;4899131;29;20053;-73
2022/07/26 09:23:54;;;;;;;1.77;0.90;;;;;;;;;;4899201;29;20142;-74
2022/07/26 09:26:24;;;;;;;3.83;0.70;;;;;;;;;;4875903;29;20096;-72
2022/07/26 09:29:05;;;;;;;2.67;1.02;;;;;;;;;;4913028;29;20057;-74
2022/07/26 09:31:40;;;;;;;3.30;0.70;;;;;;;;;;4893885;29;20071;-75
2022/07/26 09:34:08;;;;;;;3.95;0.80;;;;;;;;;;4880002;29;20049;-75
2022/07/26 09:36:52;;;;;;;3.72;0.68;;;;;;;;;;4897859;29;20048;-76
2022/07/26 09:39:20;;;;;;;2.42;0.60;;;;;;;;;;4910075;29;20076;-74
2022/07/26 09:42:06;;;;;;;2.03;0.70;;;;;;;;;;4912326;29;20048;-73
2022/07/26 09:44:56;;;;;;;1.92;0.60;;;;;;;;;;4893642;29;20045;-75
2022/07/26 09:47:37;;;;;;;1.13;0.75;;;;;;;;;;4896871;29;20397;-73
2022/07/26 09:50:32;;;;;;;3.17;0.63;;;;;;;;;;4889368;29;20057;-73
2022/07/26 09:53:10;;;;;;;1.48;0.60;;;;;;;;;;4898141;29;20053;-72
2022/07/26 09:55:54;;;;;;;1.40;0.70;;;;;;;;;;4900196;29;20057;-71
2022/07/26 09:58:21;;;;;;;1.30;0.60;;;;;;;;;;4897302;29;20492;-71
2022/07/26 10:00:48;;;;;;;2.72;0.80;;;;;;;;;;4892291;29;20063;-75
2022/07/26 10:03:15;;;;;;;5.13;0.60;;;;;;;;;;4912885;29;20460;-69
2022/07/26 10:05:41;;;;;;;1.43;0.70;;;;;;;;;;4898346;29;20056;-71
2022/07/26 10:08:08;;;;;;;0.80;0.60;;;;;;;;;;4899141;29;20052;-72
2022/07/26 10:10:40;;;;;;;3.53;0.70;;;;;;;;;;4912857;29;20053;-71
2022/07/26 10:13:07;;;;;;;2.90;0.70;;;;;;;;;;4909617;29;20507;-72
2022/07/26 10:15:45;;;;;;;2.58;0.60;;;;;;;;;;4913601;29;20053;-73
2022/07/26 10:18:37;;;;;;;1.77;0.80;;;;;;;;;;4899064;29;20398;-77
2022/07/26 10:21:18;;;;;;;0.95;0.60;;;;;;;;;;4903382;29;20048;-77
2022/07/26 10:23:59;;;;;;;2.70;0.80;;;;;;;;;;4914329;29;20083;-76
2022/07/26 10:26:39;;;;;;;4.57;0.80;;;;;;;;;;4886361;29;20045;-76
2022/07/26 10:29:16;;;;;;;2.67;0.67;;;;;;;;;;4904542;29;20136;-71
2022/07/26 10:31:43;;;;;;;1.38;0.68;;;;;;;;;;4897679;29;20058;-70
2022/07/26 10:34:46;;;;;;;2.35;0.93;;;;;;;;;;4897643;29;20055;-71
2022/07/26 10:37:22;;;;;;;2.08;0.60;;;;;;;;;;4897891;29;20051;-71
2022/07/26 10:39:48;;;;;;;3.83;0.85;;;;;;;;;;4894845;29;20472;-70
2022/07/26 10:42:15;;;;;;;2.70;0.90;;;;;;;;;;4911820;29;20067;-71
2022/07/26 10:44:43;;;;;;;1.48;0.55;;;;;;;;;;4897632;29;20053;-72
2022/07/26 10:47:14;;;;;;;0.93;0.60;;;;;;;;;;4897145;29;20041;-71
2022/07/26 10:49:57;;;;;;;4.85;1.20;;;;;;;;;;4911842;29;20076;-72
2022/07/26 10:52:26;;;;;;;1.88;1.02;;;;;;;;;;4898150;29;20063;-72
2022/07/26 10:54:56;;;;;;;2.08;0.60;;;;;;;;;;4897087;29;20763;-71
2022/07/26 10:57:23;;;;;;;1.67;0.88;;;;;;;;;;4898008;29;20151;-72
2022/07/26 10:59:50;;;;;;;3.25;0.85;;;;;;;;;;4889940;29;20064;-72
2022/07/26 11:02:25;;;;;;;4.50;1.25;;;;;;;;;;4897740;29;20061;-74
2022/07/26 11:05:03;;;;;;;0.80;0.57;;;;;;;;;;4890921;29;20040;-72
2022/07/26 11:07:30;;;;;;;1.50;0.63;;;;;;;;;;4897337;29;20049;-71
2022/07/26 11:09:58;;;;;;;1.70;0.57;;;;;;;;;;4897226;29;20048;-71
2022/07/26 11:12:24;;;;;;;2.40;0.75;;;;;;;;;;4911406;29;20073;-72
2022/07/26 11:14:53;;;;;;;1.15;0.60;;;;;;;;;;4897080;29;20397;-71
2022/07/26 11:17:30;;;;;;;2.35;0.80;;;;;;;;;;4897026;29;20091;-71
2022/07/26 11:19:57;;;;;;;2.92;0.65;;;;;;;;;;4894614;29;20052;-70
2022/07/26 11:22:34;;;;;;;1.90;0.70;;;;;;;;;;4896337;29;20052;-71
2022/07/26 11:25:01;;;;;;;1.70;0.77;;;;;;;;;;4896432;29;20056;-72
2022/07/26 11:27:28;;;;;;;2.38;0.60;;;;;;;;;;4897524;29;20052;-71
2022/07/26 11:29:54;;;;;;;1.45;0.80;;;;;;;;;;4896511;29;20052;-72
2022/07/26 11:32:23;;;;;;;2.40;0.65;;;;;;;;;;4896599;29;20460;-72
2022/07/26 11:35:00;;;;;;;1.58;0.90;;;;;;;;;;4896249;29;20056;-72
2022/07/26 11:37:28;;;;;;;0.80;0.70;;;;;;;;;;4896772;29;20057;-72
2022/07/26 11:39:55;;;;;;;2.20;0.60;;;;;;;;;;4894950;29;20048;-71
2022/07/26 11:42:22;;;;;;;1.75;0.70;;;;;;;;;;4896854;29;20076;-72
2022/07/26 11:44:49;;;;;;;2.38;0.50;;;;;;;;;;4897068;29;20063;-71
2022/07/26 11:47:18;;;;;;;4.03;0.77;;;;;;;;;;4896560;29;20112;-72
2022/07/26 11:49:46;;;;;;;0.45;0.45;;;;;;;;;;4896809;29;20496;-71
2022/07/26 11:52:33;;;;;;;1.67;0.52;;;;;;;;;;4882834;29;20064;-72
2022/07/26 11:54:59;;;;;;;1.20;0.75;;;;;;;;;;4895703;29;20052;-71
2022/07/26 11:57:28;;;;;;;1.55;0.60;;;;;;;;;;4896942;29;20048;-71
2022/07/26 11:59:54;;;;;;;3.90;0.60;;;;;;;;;;4910733;29;20048;-72
2022/07/26 12:02:21;;;;;;;1.17;0.60;;;;;;;;;;4910488;29;20066;-72
2022/07/26 12:04:48;;;;;;;1.00;0.60;;;;;;;;;;4896322;29;20481;-71
2022/07/26 12:07:17;;;;;;;0.68;0.60;;;;;;;;;;4896267;29;20131;-72
2022/07/26 12:09:52;;;;;;;1.85;0.60;;;;;;;;;;4894052;29;20052;-72
2022/07/26 12:12:22;;;;;;;1.33;0.85;;;;;;;;;;4896245;29;20056;-71
2022/07/26 12:15:05;;;;;;;1.10;0.60;;;;;;;;;;4910064;29;20052;-72
2022/07/26 12:17:32;;;;;;;2.00;0.52;;;;;;;;;;4895777;29;20044;-71
2022/07/26 12:20:15;;;;;;;2.00;0.80;;;;;;;;;;4896683;29;20056;-72
2022/07/26 12:22:56;;;;;;;1.77;0.52;;;;;;;;;;4897055;29;20052;-72
2022/07/26 12:25:26;;;;;;;0.50;0.50;;;;;;;;;;4878079;29;20061;-71
2022/07/26 12:27:53;;;;;;;0.93;0.68;;;;;;;;;;4896408;29;20084;-72
2022/07/26 12:30:20;;;;;;;2.60;0.60;;;;;;;;;;4881592;29;20436;-72
2022/07/26 12:32:47;;;;;;;1.17;0.65;;;;;;;;;;4898324;29;20049;-73
2022/07/26 12:35:16;;;;;;;0.65;0.52;;;;;;;;;;4878062;29;20500;-75
2022/07/26 12:37:46;;;;;;;0.95;0.50;;;;;;;;;;4893293;29;20067;-75
2022/07/26 12:40:15;;;;;;;3.28;0.50;;;;;;;;;;4879345;29;20412;-76
2022/07/26 12:42:51;;;;;;;0.85;0.60;;;;;;;;;;4893411;29;20059;-74
2022/07/26 12:45:26;;;;;;;2.22;0.50;;;;;;;;;;4879776;29;20120;-75
2022/07/26 12:47:54;;;;;;;5.93;0.57;;;;;;;;;;4893254;29;20049;-75
2022/07/26 12:50:22;;;;;;;1.70;0.65;;;;;;;;;;4895940;29;20060;-73
2022/07/26 12:52:49;;;;;;;1.77;0.65;;;;;;;;;;4897243;29;20143;-74
2022/07/26 12:55:18;;;;;;;2.10;0.60;;;;;;;;;;4897839;29;20103;-76
2022/07/26 12:57:45;;;;;;;1.73;0.47;;;;;;;;;;4897941;29;20073;-76
2022/07/26 13:00:15;;;;;;;0.95;0.47;;;;;;;;;;4896498;29;20060;-74
2022/07/26 13:02:42;;;;;;;1.35;0.65;;;;;;;;;;4897170;29;20054;-75
2022/07/26 13:05:18;;;;;;;1.33;0.57;;;;;;;;;;4881639;29;20080;-76
2022/07/26 13:07:45;;;;;;;0.80;0.60;;;;;;;;;;4896560;29;20064;-75
2022/07/26 13:10:12;;;;;;;0.65;0.30;;;;;;;;;;4896786;29;20421;-75
2022/07/26 13:12:58;;;;;;;3.28;0.40;;;;;;;;;;4896775;29;20467;-74
2022/07/26 13:15:25;;;;;;;0.43;0.43;;;;;;;;;;4897719;29;20052;-75
2022/07/26 13:18:04;;;;;;;0.90;0.30;;;;;;;;;;4897466;29;20049;-75
2022/07/26 13:20:38;;;;;;;0.70;0.50;;;;;;;;;;4897302;29;20057;-79
2022/07/26 13:23:10;;;;;;;1.08;0.40;;;;;;;;;;4880759;29;20056;-78
2022/07/26 13:25:39;;;;;;;2.53;0.30;;;;;;;;;;4895710;29;20099;-75
2022/07/26 13:28:07;;;;;;;1.55;0.50;;;;;;;;;;4897098;29;20052;-78
2022/07/26 13:30:35;;;;;;;2.67;0.55;;;;;;;;;;4895684;29;20052;-75
2022/07/26 13:33:02;;;;;;;1.13;0.65;;;;;;;;;;4895844;29;20564;-75
2022/07/26 13:35:29;;;;;;;1.42;0.50;;;;;;;;;;4896849;29;20091;-77
2022/07/26 13:37:56;;;;;;;0.95;0.55;;;;;;;;;;4896553;29;20049;-76
2022/07/26 13:40:23;;;;;;;0.50;0.35;;;;;;;;;;4896931;29;20785;-75
2022/07/26 13:42:56;;;;;;;0.40;0.40;;;;;;;;;;4896858;29;20496;-73
2022/07/26 13:45:23;;;;;;;1.40;0.65;;;;;;;;;;4896915;29;20409;-78
2022/07/26 13:47:54;;;;;;;1.10;0.50;;;;;;;;;;4897046;29;20053;-78
2022/07/26 13:50:21;;;;;;;0.73;0.60;;;;;;;;;;4880376;29;20053;-77
2022/07/26 13:52:48;;;;;;;2.78;0.63;;;;;;;;;;4901714;29;20065;-75
2022/07/26 13:55:14;;;;;;;1.02;0.55;;;;;;;;;;4902126;29;20053;-76
2022/07/26 13:57:41;;;;;;;1.35;0.70;;;;;;;;;;4899041;29;20053;-73
2022/07/26 14:00:23;;;;;;;1.75;0.60;;;;;;;;;;4899967;29;20059;-75
2022/07/26 14:02:49;;;;;;;0.82;0.40;;;;;;;;;;4914621;29;20063;-75
2022/07/26 14:05:17;;;;;;;0.73;0.40;;;;;;;;;;4898716;29;20052;-75
2022/07/26 14:07:44;;;;;;;1.55;0.70;;;;;;;;;;4895853;29;20056;-75
2022/07/26 14:10:10;;;;;;;1.05;0.60;;;;;;;;;;4881186;29;20052;-74
2022/07/26 14:12:37;;;;;;;0.55;0.35;;;;;;;;;;4896185;29;20056;-75
2022/07/26 14:15:04;;;;;;;1.35;0.60;;;;;;;;;;4901002;29;20048;-74
2022/07/26 14:17:39;;;;;;;4.45;0.60;;;;;;;;;;4899991;29;20065;-75
2022/07/26 14:20:06;;;;;;;1.75;0.45;;;;;;;;;;4898790;29;20056;-75
2022/07/26 14:22:33;;;;;;;2.45;0.60;;;;;;;;;;4900160;29;20056;-76
2022/07/26 14:25:00;;;;;;;1.35;0.60;;;;;;;;;;4901995;29;20052;-74
2022/07/26 14:27:26;;;;;;;1.80;0.47;;;;;;;;;;4902944;29;20087;-81
2022/07/26 14:29:53;;;;;;;1.35;0.55;;;;;;;;;;4899773;29;20056;-71
2022/07/26 14:32:20;;;;;;;2.20;0.70;;;;;;;;;;4899507;29;20541;-72
2022/07/26 14:34:48;;;;;;;0.85;0.60;;;;;;;;;;4898610;29;20056;-72
2022/07/26 14:37:15;;;;;;;1.23;0.50;;;;;;;;;;4899322;29;20136;-70
2022/07/26 14:40:03;;;;;;;1.38;0.63;;;;;;;;;;4899413;29;20057;-71
2022/07/26 14:42:30;;;;;;;1.25;0.70;;;;;;;;;;4896003;29;20134;-70
2022/07/26 14:44:57;;;;;;;1.50;0.70;;;;;;;;;;4899173;29;20056;-70
2022/07/26 14:47:23;;;;;;;1.52;0.60;;;;;;;;;;4897308;29;20053;-69
2022/07/26 14:49:50;;;;;;;0.65;0.60;;;;;;;;;;4897676;29;20416;-70
2022/07/26 14:52:17;;;;;;;1.65;0.50;;;;;;;;;;4898075;29;20412;-69
2022/07/26 14:54:43;;;;;;;3.55;0.88;;;;;;;;;;4910225;29;20052;-69
2022/07/26 14:57:10;;;;;;;1.77;0.68;;;;;;;;;;4897209;29;20057;-69